sensor_id;sensor_type;location;lat;lon;timestamp;P1;durP1;ratioP1;P2;durP2;ratioP2
45236;SDS011;30973;51.442;3.580;2023-02-21T00:01:20;22.63;;;6.50;;
45236;SDS011;30973;51.442;3.580;2023-02-21T00:04:05;12.90;;;5.20;;
45236;SDS011;30973;51.442;3.580;2023-02-21T00:06:51;15.43;;;5.43;;
45236;SDS011;30973;51.442;3.580;2023-02-21T00:09:37;11.90;;;5.15;;
45236;SDS011;30973;51.442;3.580;2023-02-21T00:12:22;12.45;;;4.50;;
45236;SDS011;30973;51.442;3.580;2023-02-21T00:15:08;14.23;;;5.88;;
45236;SDS011;30973;51.442;3.580;2023-02-21T00:17:53;15.25;;;4.10;;
45236;SDS011;30973;51.442;3.580;2023-02-21T00:20:38;14.55;;;4.40;;
45236;SDS011;30973;51.442;3.580;2023-02-21T00:23:24;13.07;;;3.60;;
45236;SDS011;30973;51.442;3.580;2023-02-21T00:26:09;10.57;;;4.50;;
45236;SDS011;30973;51.442;3.580;2023-02-21T00:31:40;18.10;;;4.65;;
45236;SDS011;30973;51.442;3.580;2023-02-21T00:34:25;13.02;;;4.75;;
45236;SDS011;30973;51.442;3.580;2023-02-21T00:37:10;10.52;;;4.22;;
45236;SDS011;30973;51.442;3.580;2023-02-21T00:39:55;16.27;;;6.20;;
45236;SDS011;30973;51.442;3.580;2023-02-21T00:42:40;14.02;;;5.90;;
45236;SDS011;30973;51.442;3.580;2023-02-21T00:45:26;13.52;;;5.70;;
45236;SDS011;30973;51.442;3.580;2023-02-21T00:48:11;14.48;;;6.53;;
45236;SDS011;30973;51.442;3.580;2023-02-21T00:50:56;17.23;;;8.85;;
45236;SDS011;30973;51.442;3.580;2023-02-21T00:53:42;15.55;;;7.70;;
45236;SDS011;30973;51.442;3.580;2023-02-21T00:56:27;15.27;;;7.90;;
45236;SDS011;30973;51.442;3.580;2023-02-21T00:59:12;17.65;;;6.28;;
45236;SDS011;30973;51.442;3.580;2023-02-21T01:01:57;13.02;;;5.70;;
45236;SDS011;30973;51.442;3.580;2023-02-21T01:04:42;14.60;;;5.03;;
45236;SDS011;30973;51.442;3.580;2023-02-21T01:07:28;19.02;;;6.43;;
45236;SDS011;30973;51.442;3.580;2023-02-21T01:10:14;13.70;;;6.70;;
45236;SDS011;30973;51.442;3.580;2023-02-21T01:12:59;18.30;;;7.88;;
45236;SDS011;30973;51.442;3.580;2023-02-21T01:18:29;14.18;;;7.35;;
45236;SDS011;30973;51.442;3.580;2023-02-21T01:21:15;19.98;;;8.43;;
45236;SDS011;30973;51.442;3.580;2023-02-21T01:24:01;21.05;;;10.70;;
45236;SDS011;30973;51.442;3.580;2023-02-21T01:26:46;20.15;;;11.18;;
45236;SDS011;30973;51.442;3.580;2023-02-21T01:29:31;15.77;;;10.10;;
45236;SDS011;30973;51.442;3.580;2023-02-21T01:32:17;18.95;;;11.45;;
45236;SDS011;30973;51.442;3.580;2023-02-21T01:35:03;25.05;;;11.50;;
45236;SDS011;30973;51.442;3.580;2023-02-21T01:37:49;21.33;;;12.20;;
45236;SDS011;30973;51.442;3.580;2023-02-21T01:40:38;19.83;;;10.60;;
45236;SDS011;30973;51.442;3.580;2023-02-21T01:43:24;20.77;;;12.77;;
45236;SDS011;30973;51.442;3.580;2023-02-21T01:46:10;22.80;;;11.40;;
45236;SDS011;30973;51.442;3.580;2023-02-21T01:48:57;14.90;;;11.20;;
45236;SDS011;30973;51.442;3.580;2023-02-21T01:51:43;18.20;;;8.95;;
45236;SDS011;30973;51.442;3.580;2023-02-21T01:57:13;15.82;;;8.65;;
45236;SDS011;30973;51.442;3.580;2023-02-21T01:59:59;16.92;;;9.15;;
45236;SDS011;30973;51.442;3.580;2023-02-21T02:08:17;13.35;;;7.63;;
45236;SDS011;30973;51.442;3.580;2023-02-21T02:11:09;17.25;;;8.68;;
45236;SDS011;30973;51.442;3.580;2023-02-21T02:14:05;16.77;;;9.40;;
45236;SDS011;30973;51.442;3.580;2023-02-21T02:26:53;17.40;;;9.68;;
45236;SDS011;30973;51.442;3.580;2023-02-21T02:39:39;21.27;;;11.07;;
45236;SDS011;30973;51.442;3.580;2023-02-21T02:42:13;21.75;;;11.40;;
45236;SDS011;30973;51.442;3.580;2023-02-21T02:44:41;21.63;;;11.55;;
45236;SDS011;30973;51.442;3.580;2023-02-21T02:47:14;20.70;;;12.02;;
45236;SDS011;30973;51.442;3.580;2023-02-21T02:49:42;17.55;;;12.43;;
45236;SDS011;30973;51.442;3.580;2023-02-21T02:52:10;19.52;;;11.95;;
45236;SDS011;30973;51.442;3.580;2023-02-21T02:54:37;19.40;;;11.43;;
45236;SDS011;30973;51.442;3.580;2023-02-21T02:57:04;17.60;;;12.13;;
45236;SDS011;30973;51.442;3.580;2023-02-21T02:59:36;22.35;;;12.90;;
45236;SDS011;30973;51.442;3.580;2023-02-21T03:10:11;23.50;;;14.43;;
45236;SDS011;30973;51.442;3.580;2023-02-21T03:12:43;21.77;;;13.20;;
45236;SDS011;30973;51.442;3.580;2023-02-21T03:15:12;22.70;;;14.38;;
45236;SDS011;30973;51.442;3.580;2023-02-21T03:17:41;26.45;;;15.20;;
45236;SDS011;30973;51.442;3.580;2023-02-21T03:20:09;24.65;;;14.45;;
45236;SDS011;30973;51.442;3.580;2023-02-21T03:22:37;22.13;;;13.27;;
45236;SDS011;30973;51.442;3.580;2023-02-21T03:25:05;24.50;;;11.88;;
45236;SDS011;30973;51.442;3.580;2023-02-21T03:27:35;18.48;;;11.43;;
45236;SDS011;30973;51.442;3.580;2023-02-21T03:30:20;16.67;;;11.57;;
45236;SDS011;30973;51.442;3.580;2023-02-21T03:32:50;17.42;;;10.93;;
45236;SDS011;30973;51.442;3.580;2023-02-21T03:35:19;22.13;;;10.45;;
45236;SDS011;30973;51.442;3.580;2023-02-21T03:37:48;17.80;;;10.88;;
45236;SDS011;30973;51.442;3.580;2023-02-21T03:40:19;18.60;;;10.20;;
45236;SDS011;30973;51.442;3.580;2023-02-21T03:42:49;14.95;;;9.43;;
45236;SDS011;30973;51.442;3.580;2023-02-21T03:45:17;16.63;;;9.93;;
45236;SDS011;30973;51.442;3.580;2023-02-21T03:47:55;20.38;;;10.00;;
45236;SDS011;30973;51.442;3.580;2023-02-21T03:50:21;16.20;;;9.77;;
45236;SDS011;30973;51.442;3.580;2023-02-21T03:52:48;19.15;;;10.35;;
45236;SDS011;30973;51.442;3.580;2023-02-21T03:55:15;18.13;;;9.73;;
45236;SDS011;30973;51.442;3.580;2023-02-21T03:57:42;20.10;;;8.25;;
45236;SDS011;30973;51.442;3.580;2023-02-21T04:00:09;16.50;;;9.50;;
45236;SDS011;30973;51.442;3.580;2023-02-21T04:02:42;15.73;;;8.90;;
45236;SDS011;30973;51.442;3.580;2023-02-21T04:05:19;17.48;;;9.63;;
45236;SDS011;30973;51.442;3.580;2023-02-21T04:07:47;17.02;;;9.50;;
45236;SDS011;30973;51.442;3.580;2023-02-21T04:10:14;18.95;;;9.75;;
45236;SDS011;30973;51.442;3.580;2023-02-21T04:12:43;17.77;;;10.55;;
45236;SDS011;30973;51.442;3.580;2023-02-21T04:15:10;19.50;;;11.38;;
45236;SDS011;30973;51.442;3.580;2023-02-21T04:17:37;21.02;;;11.43;;
45236;SDS011;30973;51.442;3.580;2023-02-21T04:20:06;20.30;;;12.15;;
45236;SDS011;30973;51.442;3.580;2023-02-21T04:22:36;22.60;;;11.65;;
45236;SDS011;30973;51.442;3.580;2023-02-21T04:25:03;20.83;;;11.30;;
45236;SDS011;30973;51.442;3.580;2023-02-21T04:27:35;22.13;;;11.18;;
45236;SDS011;30973;51.442;3.580;2023-02-21T04:30:03;24.58;;;11.15;;
45236;SDS011;30973;51.442;3.580;2023-02-21T04:32:30;22.40;;;11.18;;
45236;SDS011;30973;51.442;3.580;2023-02-21T04:34:59;22.02;;;10.60;;
45236;SDS011;30973;51.442;3.580;2023-02-21T04:37:26;16.92;;;10.20;;
45236;SDS011;30973;51.442;3.580;2023-02-21T04:39:53;18.48;;;10.27;;
45236;SDS011;30973;51.442;3.580;2023-02-21T04:42:19;18.35;;;11.55;;
45236;SDS011;30973;51.442;3.580;2023-02-21T04:44:46;18.00;;;10.82;;
45236;SDS011;30973;51.442;3.580;2023-02-21T04:47:26;21.88;;;12.15;;
45236;SDS011;30973;51.442;3.580;2023-02-21T04:49:52;18.67;;;11.70;;
45236;SDS011;30973;51.442;3.580;2023-02-21T04:52:19;23.25;;;13.38;;
45236;SDS011;30973;51.442;3.580;2023-02-21T04:54:46;25.20;;;14.30;;
45236;SDS011;30973;51.442;3.580;2023-02-21T04:57:13;25.30;;;13.90;;
45236;SDS011;30973;51.442;3.580;2023-02-21T04:59:40;25.60;;;13.73;;
45236;SDS011;30973;51.442;3.580;2023-02-21T05:02:07;24.00;;;13.00;;
45236;SDS011;30973;51.442;3.580;2023-02-21T05:04:34;25.80;;;14.70;;
45236;SDS011;30973;51.442;3.580;2023-02-21T05:07:02;26.17;;;14.10;;
45236;SDS011;30973;51.442;3.580;2023-02-21T05:09:28;28.02;;;14.85;;
45236;SDS011;30973;51.442;3.580;2023-02-21T05:11:55;35.63;;;15.50;;
45236;SDS011;30973;51.442;3.580;2023-02-21T05:14:21;28.05;;;16.48;;
45236;SDS011;30973;51.442;3.580;2023-02-21T05:16:48;29.10;;;16.65;;
45236;SDS011;30973;51.442;3.580;2023-02-21T05:19:21;30.55;;;17.25;;
45236;SDS011;30973;51.442;3.580;2023-02-21T05:21:56;33.63;;;18.25;;
45236;SDS011;30973;51.442;3.580;2023-02-21T05:24:23;37.55;;;21.08;;
45236;SDS011;30973;51.442;3.580;2023-02-21T05:26:50;41.38;;;22.45;;
45236;SDS011;30973;51.442;3.580;2023-02-21T05:29:16;45.33;;;23.08;;
45236;SDS011;30973;51.442;3.580;2023-02-21T05:31:44;48.75;;;24.60;;
45236;SDS011;30973;51.442;3.580;2023-02-21T05:34:11;51.38;;;24.92;;
45236;SDS011;30973;51.442;3.580;2023-02-21T05:36:38;49.67;;;25.45;;
45236;SDS011;30973;51.442;3.580;2023-02-21T05:39:06;51.85;;;26.15;;
45236;SDS011;30973;51.442;3.580;2023-02-21T05:41:33;55.03;;;26.95;;
45236;SDS011;30973;51.442;3.580;2023-02-21T05:44:01;53.03;;;26.77;;
45236;SDS011;30973;51.442;3.580;2023-02-21T05:46:32;59.88;;;28.52;;
45236;SDS011;30973;51.442;3.580;2023-02-21T05:49:00;59.42;;;28.83;;
45236;SDS011;30973;51.442;3.580;2023-02-21T05:51:27;58.00;;;28.83;;
45236;SDS011;30973;51.442;3.580;2023-02-21T05:53:53;57.20;;;28.05;;
45236;SDS011;30973;51.442;3.580;2023-02-21T05:56:20;53.50;;;26.38;;
45236;SDS011;30973;51.442;3.580;2023-02-21T05:58:47;50.92;;;24.92;;
45236;SDS011;30973;51.442;3.580;2023-02-21T06:01:14;51.38;;;24.65;;
45236;SDS011;30973;51.442;3.580;2023-02-21T06:03:41;40.70;;;21.20;;
45236;SDS011;30973;51.442;3.580;2023-02-21T06:06:09;39.17;;;20.30;;
45236;SDS011;30973;51.442;3.580;2023-02-21T06:08:46;40.38;;;22.05;;
45236;SDS011;30973;51.442;3.580;2023-02-21T06:11:13;39.35;;;22.08;;
45236;SDS011;30973;51.442;3.580;2023-02-21T06:13:40;47.13;;;23.83;;
45236;SDS011;30973;51.442;3.580;2023-02-21T06:16:07;42.45;;;22.10;;
45236;SDS011;30973;51.442;3.580;2023-02-21T06:18:34;40.65;;;21.52;;
45236;SDS011;30973;51.442;3.580;2023-02-21T06:21:00;42.83;;;22.33;;
45236;SDS011;30973;51.442;3.580;2023-02-21T06:23:27;41.72;;;22.20;;
45236;SDS011;30973;51.442;3.580;2023-02-21T06:25:54;42.22;;;21.60;;
45236;SDS011;30973;51.442;3.580;2023-02-21T06:28:26;37.20;;;19.70;;
45236;SDS011;30973;51.442;3.580;2023-02-21T06:30:53;34.13;;;18.13;;
45236;SDS011;30973;51.442;3.580;2023-02-21T06:33:19;34.70;;;17.63;;
45236;SDS011;30973;51.442;3.580;2023-02-21T06:35:46;35.40;;;19.33;;
45236;SDS011;30973;51.442;3.580;2023-02-21T06:38:13;34.50;;;18.98;;
45236;SDS011;30973;51.442;3.580;2023-02-21T06:40:39;32.55;;;18.83;;
45236;SDS011;30973;51.442;3.580;2023-02-21T06:43:07;32.22;;;18.75;;
45236;SDS011;30973;51.442;3.580;2023-02-21T06:45:33;29.75;;;16.63;;
45236;SDS011;30973;51.442;3.580;2023-02-21T06:48:00;28.95;;;17.95;;
45236;SDS011;30973;51.442;3.580;2023-02-21T06:50:26;30.73;;;17.15;;
45236;SDS011;30973;51.442;3.580;2023-02-21T06:52:53;28.58;;;16.83;;
45236;SDS011;30973;51.442;3.580;2023-02-21T06:55:20;29.77;;;17.45;;
45236;SDS011;30973;51.442;3.580;2023-02-21T06:57:50;28.35;;;16.88;;
45236;SDS011;30973;51.442;3.580;2023-02-21T07:00:17;28.15;;;16.25;;
45236;SDS011;30973;51.442;3.580;2023-02-21T07:02:44;25.48;;;15.63;;
45236;SDS011;30973;51.442;3.580;2023-02-21T07:05:10;28.77;;;15.27;;
45236;SDS011;30973;51.442;3.580;2023-02-21T07:07:37;26.88;;;15.60;;
45236;SDS011;30973;51.442;3.580;2023-02-21T07:10:04;27.55;;;17.48;;
45236;SDS011;30973;51.442;3.580;2023-02-21T07:12:30;24.85;;;14.60;;
45236;SDS011;30973;51.442;3.580;2023-02-21T07:14:57;22.02;;;14.07;;
45236;SDS011;30973;51.442;3.580;2023-02-21T07:17:24;21.08;;;13.45;;
45236;SDS011;30973;51.442;3.580;2023-02-21T07:19:52;21.80;;;14.35;;
45236;SDS011;30973;51.442;3.580;2023-02-21T07:22:19;22.42;;;13.30;;
45236;SDS011;30973;51.442;3.580;2023-02-21T07:24:52;20.35;;;13.57;;
45236;SDS011;30973;51.442;3.580;2023-02-21T07:27:19;18.92;;;12.02;;
45236;SDS011;30973;51.442;3.580;2023-02-21T07:29:49;18.38;;;11.30;;
45236;SDS011;30973;51.442;3.580;2023-02-21T07:32:16;19.77;;;12.18;;
45236;SDS011;30973;51.442;3.580;2023-02-21T07:34:43;19.05;;;12.43;;
45236;SDS011;30973;51.442;3.580;2023-02-21T07:37:10;19.00;;;12.43;;
45236;SDS011;30973;51.442;3.580;2023-02-21T07:39:37;21.67;;;12.50;;
45236;SDS011;30973;51.442;3.580;2023-02-21T07:42:03;18.38;;;11.88;;
45236;SDS011;30973;51.442;3.580;2023-02-21T07:44:30;19.70;;;12.95;;
45236;SDS011;30973;51.442;3.580;2023-02-21T07:46:57;21.42;;;12.95;;
45236;SDS011;30973;51.442;3.580;2023-02-21T07:49:23;18.40;;;11.75;;
45236;SDS011;30973;51.442;3.580;2023-02-21T07:51:50;18.77;;;11.60;;
45236;SDS011;30973;51.442;3.580;2023-02-21T07:54:17;19.38;;;11.43;;
45236;SDS011;30973;51.442;3.580;2023-02-21T07:56:44;19.52;;;12.07;;
45236;SDS011;30973;51.442;3.580;2023-02-21T07:59:11;18.60;;;11.80;;
45236;SDS011;30973;51.442;3.580;2023-02-21T08:01:38;22.05;;;12.00;;
45236;SDS011;30973;51.442;3.580;2023-02-21T08:04:04;17.58;;;11.75;;
45236;SDS011;30973;51.442;3.580;2023-02-21T08:06:34;18.40;;;11.60;;
45236;SDS011;30973;51.442;3.580;2023-02-21T08:09:01;14.90;;;9.82;;
45236;SDS011;30973;51.442;3.580;2023-02-21T08:11:28;15.27;;;10.02;;
45236;SDS011;30973;51.442;3.580;2023-02-21T08:13:55;19.15;;;11.30;;
45236;SDS011;30973;51.442;3.580;2023-02-21T08:16:22;15.75;;;9.93;;
45236;SDS011;30973;51.442;3.580;2023-02-21T08:18:49;15.18;;;10.85;;
45236;SDS011;30973;51.442;3.580;2023-02-21T08:21:16;16.27;;;10.55;;
45236;SDS011;30973;51.442;3.580;2023-02-21T08:23:42;15.75;;;10.50;;
45236;SDS011;30973;51.442;3.580;2023-02-21T08:26:09;16.15;;;10.00;;
45236;SDS011;30973;51.442;3.580;2023-02-21T08:28:36;19.50;;;10.93;;
45236;SDS011;30973;51.442;3.580;2023-02-21T08:31:03;19.10;;;11.32;;
45236;SDS011;30973;51.442;3.580;2023-02-21T08:33:29;17.27;;;10.65;;
45236;SDS011;30973;51.442;3.580;2023-02-21T08:35:56;21.33;;;12.10;;
45236;SDS011;30973;51.442;3.580;2023-02-21T08:38:23;17.38;;;10.05;;
45236;SDS011;30973;51.442;3.580;2023-02-21T08:40:50;18.95;;;10.55;;
45236;SDS011;30973;51.442;3.580;2023-02-21T08:43:16;15.38;;;8.85;;
45236;SDS011;30973;51.442;3.580;2023-02-21T08:49:26;11.93;;;6.40;;
45236;SDS011;30973;51.442;3.580;2023-02-21T08:55:11;11.38;;;6.63;;
45236;SDS011;30973;51.442;3.580;2023-02-21T08:57:44;11.50;;;7.38;;
45236;SDS011;30973;51.442;3.580;2023-02-21T09:00:12;11.77;;;7.05;;
45236;SDS011;30973;51.442;3.580;2023-02-21T09:02:39;11.75;;;7.32;;
45236;SDS011;30973;51.442;3.580;2023-02-21T09:05:13;9.18;;;6.72;;
45236;SDS011;30973;51.442;3.580;2023-02-21T09:07:40;12.07;;;7.88;;
45236;SDS011;30973;51.442;3.580;2023-02-21T09:10:07;15.07;;;9.27;;
45236;SDS011;30973;51.442;3.580;2023-02-21T09:12:35;14.27;;;9.70;;
45236;SDS011;30973;51.442;3.580;2023-02-21T09:15:02;15.45;;;10.23;;
45236;SDS011;30973;51.442;3.580;2023-02-21T09:17:29;14.82;;;9.32;;
45236;SDS011;30973;51.442;3.580;2023-02-21T09:20:00;15.00;;;10.57;;
45236;SDS011;30973;51.442;3.580;2023-02-21T09:22:26;14.05;;;9.55;;
45236;SDS011;30973;51.442;3.580;2023-02-21T09:24:53;19.20;;;11.23;;
45236;SDS011;30973;51.442;3.580;2023-02-21T09:27:20;17.67;;;11.98;;
45236;SDS011;30973;51.442;3.580;2023-02-21T09:30:03;17.15;;;10.75;;
45236;SDS011;30973;51.442;3.580;2023-02-21T09:32:29;58.05;;;16.80;;
45236;SDS011;30973;51.442;3.580;2023-02-21T09:34:56;24.20;;;12.35;;
45236;SDS011;30973;51.442;3.580;2023-02-21T09:37:23;21.02;;;12.75;;
45236;SDS011;30973;51.442;3.580;2023-02-21T09:39:50;20.88;;;11.68;;
45236;SDS011;30973;51.442;3.580;2023-02-21T09:42:17;38.47;;;15.68;;
45236;SDS011;30973;51.442;3.580;2023-02-21T09:44:44;20.63;;;13.88;;
45236;SDS011;30973;51.442;3.580;2023-02-21T09:47:21;24.90;;;14.20;;
45236;SDS011;30973;51.442;3.580;2023-02-21T09:49:50;24.02;;;13.95;;
45236;SDS011;30973;51.442;3.580;2023-02-21T09:52:36;20.35;;;12.73;;
45236;SDS011;30973;51.442;3.580;2023-02-21T09:55:07;19.88;;;13.02;;
45236;SDS011;30973;51.442;3.580;2023-02-21T09:57:35;17.98;;;12.57;;
45236;SDS011;30973;51.442;3.580;2023-02-21T10:00:05;18.33;;;11.95;;
45236;SDS011;30973;51.442;3.580;2023-02-21T10:02:54;18.52;;;12.23;;
45236;SDS011;30973;51.442;3.580;2023-02-21T10:08:01;23.65;;;12.57;;
45236;SDS011;30973;51.442;3.580;2023-02-21T10:13:06;24.70;;;13.80;;
45236;SDS011;30973;51.442;3.580;2023-02-21T10:20:31;25.73;;;13.57;;
45236;SDS011;30973;51.442;3.580;2023-02-21T10:22:59;27.30;;;14.55;;
45236;SDS011;30973;51.442;3.580;2023-02-21T10:25:29;30.83;;;15.50;;
45236;SDS011;30973;51.442;3.580;2023-02-21T10:27:57;31.63;;;17.20;;
45236;SDS011;30973;51.442;3.580;2023-02-21T10:30:26;28.83;;;16.30;;
45236;SDS011;30973;51.442;3.580;2023-02-21T10:32:55;29.75;;;15.98;;
45236;SDS011;30973;51.442;3.580;2023-02-21T10:35:21;33.42;;;17.92;;
45236;SDS011;30973;51.442;3.580;2023-02-21T10:37:52;39.97;;;19.80;;
45236;SDS011;30973;51.442;3.580;2023-02-21T10:40:39;43.22;;;20.98;;
45236;SDS011;30973;51.442;3.580;2023-02-21T10:43:17;40.35;;;19.83;;
45236;SDS011;30973;51.442;3.580;2023-02-21T10:58:32;39.50;;;22.52;;
45236;SDS011;30973;51.442;3.580;2023-02-21T11:01:09;43.25;;;24.52;;
45236;SDS011;30973;51.442;3.580;2023-02-21T11:03:41;42.90;;;25.15;;
45236;SDS011;30973;51.442;3.580;2023-02-21T11:06:08;41.88;;;24.20;;
45236;SDS011;30973;51.442;3.580;2023-02-21T11:08:37;38.90;;;23.52;;
45236;SDS011;30973;51.442;3.580;2023-02-21T11:11:04;36.42;;;20.17;;
45236;SDS011;30973;51.442;3.580;2023-02-21T11:13:31;32.38;;;19.33;;
45236;SDS011;30973;51.442;3.580;2023-02-21T11:18:37;19.30;;;12.55;;
45236;SDS011;30973;51.442;3.580;2023-02-21T11:21:11;19.88;;;10.68;;
45236;SDS011;30973;51.442;3.580;2023-02-21T11:26:06;18.60;;;10.55;;
45236;SDS011;30973;51.442;3.580;2023-02-21T11:28:35;19.30;;;11.68;;
45236;SDS011;30973;51.442;3.580;2023-02-21T11:33:57;16.90;;;9.40;;
45236;SDS011;30973;51.442;3.580;2023-02-21T11:36:28;16.33;;;9.63;;
45236;SDS011;30973;51.442;3.580;2023-02-21T11:39:00;15.65;;;8.80;;
45236;SDS011;30973;51.442;3.580;2023-02-21T11:41:29;15.25;;;8.63;;
45236;SDS011;30973;51.442;3.580;2023-02-21T11:43:56;16.52;;;9.80;;
45236;SDS011;30973;51.442;3.580;2023-02-21T11:54:12;12.35;;;7.53;;
45236;SDS011;30973;51.442;3.580;2023-02-21T11:56:50;15.32;;;8.40;;
45236;SDS011;30973;51.442;3.580;2023-02-21T12:07:23;12.90;;;7.53;;
45236;SDS011;30973;51.442;3.580;2023-02-21T12:09:56;13.80;;;7.97;;
45236;SDS011;30973;51.442;3.580;2023-02-21T12:12:30;10.88;;;6.93;;
45236;SDS011;30973;51.442;3.580;2023-02-21T12:15:04;13.38;;;7.82;;
45236;SDS011;30973;51.442;3.580;2023-02-21T12:17:44;10.85;;;7.10;;
45236;SDS011;30973;51.442;3.580;2023-02-21T12:20:23;13.25;;;7.97;;
45236;SDS011;30973;51.442;3.580;2023-02-21T12:30:57;14.50;;;8.30;;
45236;SDS011;30973;51.442;3.580;2023-02-21T12:48:40;11.45;;;7.50;;
45236;SDS011;30973;51.442;3.580;2023-02-21T12:51:10;11.70;;;7.13;;
45236;SDS011;30973;51.442;3.580;2023-02-21T12:53:57;11.95;;;7.20;;
45236;SDS011;30973;51.442;3.580;2023-02-21T12:58:59;13.70;;;7.68;;
45236;SDS011;30973;51.442;3.580;2023-02-21T13:01:32;11.90;;;7.07;;
45236;SDS011;30973;51.442;3.580;2023-02-21T13:06:37;13.15;;;7.70;;
45236;SDS011;30973;51.442;3.580;2023-02-21T13:11:38;12.75;;;7.28;;
45236;SDS011;30973;51.442;3.580;2023-02-21T13:16:35;12.80;;;7.60;;
45236;SDS011;30973;51.442;3.580;2023-02-21T13:19:02;12.27;;;7.18;;
45236;SDS011;30973;51.442;3.580;2023-02-21T13:29:31;18.45;;;12.07;;
45236;SDS011;30973;51.442;3.580;2023-02-21T13:32:00;18.48;;;12.52;;
45236;SDS011;30973;51.442;3.580;2023-02-21T13:34:29;18.95;;;12.05;;
45236;SDS011;30973;51.442;3.580;2023-02-21T13:37:04;21.52;;;13.88;;
45236;SDS011;30973;51.442;3.580;2023-02-21T13:44:44;24.88;;;15.43;;
45236;SDS011;30973;51.442;3.580;2023-02-21T13:47:16;29.20;;;17.20;;
45236;SDS011;30973;51.442;3.580;2023-02-21T13:49:49;26.95;;;15.48;;
45236;SDS011;30973;51.442;3.580;2023-02-21T13:57:35;18.42;;;11.73;;
45236;SDS011;30973;51.442;3.580;2023-02-21T14:05:22;17.58;;;11.50;;
45236;SDS011;30973;51.442;3.580;2023-02-21T14:07:56;18.30;;;12.48;;
45236;SDS011;30973;51.442;3.580;2023-02-21T14:12:54;16.95;;;11.45;;
45236;SDS011;30973;51.442;3.580;2023-02-21T14:15:34;17.63;;;11.52;;
45236;SDS011;30973;51.442;3.580;2023-02-21T14:18:02;15.25;;;10.00;;
45236;SDS011;30973;51.442;3.580;2023-02-21T14:20:28;17.52;;;11.07;;
45236;SDS011;30973;51.442;3.580;2023-02-21T14:22:57;17.20;;;10.65;;
45236;SDS011;30973;51.442;3.580;2023-02-21T14:25:24;17.15;;;11.43;;
45236;SDS011;30973;51.442;3.580;2023-02-21T14:27:51;17.75;;;11.35;;
45236;SDS011;30973;51.442;3.580;2023-02-21T14:30:25;17.38;;;12.10;;
45236;SDS011;30973;51.442;3.580;2023-02-21T14:32:52;17.67;;;11.10;;
45236;SDS011;30973;51.442;3.580;2023-02-21T14:35:37;16.70;;;11.20;;
45236;SDS011;30973;51.442;3.580;2023-02-21T14:38:05;20.15;;;12.45;;
45236;SDS011;30973;51.442;3.580;2023-02-21T14:40:48;22.15;;;13.70;;
45236;SDS011;30973;51.442;3.580;2023-02-21T14:56:49;21.98;;;14.73;;
45236;SDS011;30973;51.442;3.580;2023-02-21T14:59:22;38.38;;;17.58;;
45236;SDS011;30973;51.442;3.580;2023-02-21T15:07:14;22.15;;;15.90;;
45236;SDS011;30973;51.442;3.580;2023-02-21T15:09:41;22.08;;;15.90;;
45236;SDS011;30973;51.442;3.580;2023-02-21T15:12:11;25.02;;;17.00;;
45236;SDS011;30973;51.442;3.580;2023-02-21T15:14:39;26.10;;;16.65;;
45236;SDS011;30973;51.442;3.580;2023-02-21T15:17:11;23.25;;;15.60;;
45236;SDS011;30973;51.442;3.580;2023-02-21T15:19:38;22.65;;;15.75;;
45236;SDS011;30973;51.442;3.580;2023-02-21T15:22:15;21.02;;;14.95;;
45236;SDS011;30973;51.442;3.580;2023-02-21T15:27:27;21.98;;;15.23;;
45236;SDS011;30973;51.442;3.580;2023-02-21T15:30:07;21.35;;;14.85;;
45236;SDS011;30973;51.442;3.580;2023-02-21T15:32:38;22.35;;;14.13;;
45236;SDS011;30973;51.442;3.580;2023-02-21T15:35:05;21.77;;;14.73;;
45236;SDS011;30973;51.442;3.580;2023-02-21T15:37:36;21.02;;;13.60;;
45236;SDS011;30973;51.442;3.580;2023-02-21T15:40:06;20.52;;;14.02;;
45236;SDS011;30973;51.442;3.580;2023-02-21T15:42:39;20.60;;;13.95;;
45236;SDS011;30973;51.442;3.580;2023-02-21T15:48:06;20.90;;;13.32;;
45236;SDS011;30973;51.442;3.580;2023-02-21T15:56:15;20.15;;;13.50;;
45236;SDS011;30973;51.442;3.580;2023-02-21T15:59:00;20.08;;;13.02;;
45236;SDS011;30973;51.442;3.580;2023-02-21T16:01:27;21.85;;;12.98;;
45236;SDS011;30973;51.442;3.580;2023-02-21T16:04:12;18.25;;;13.10;;
45236;SDS011;30973;51.442;3.580;2023-02-21T16:06:43;18.02;;;11.40;;
45236;SDS011;30973;51.442;3.580;2023-02-21T16:16:47;17.90;;;11.30;;
45236;SDS011;30973;51.442;3.580;2023-02-21T16:19:20;17.77;;;11.95;;
45236;SDS011;30973;51.442;3.580;2023-02-21T16:21:47;17.88;;;11.80;;
45236;SDS011;30973;51.442;3.580;2023-02-21T16:24:15;15.10;;;9.77;;
45236;SDS011;30973;51.442;3.580;2023-02-21T16:26:41;14.60;;;9.65;;
45236;SDS011;30973;51.442;3.580;2023-02-21T16:29:08;15.00;;;10.48;;
45236;SDS011;30973;51.442;3.580;2023-02-21T16:31:34;19.92;;;11.90;;
45236;SDS011;30973;51.442;3.580;2023-02-21T16:34:02;15.70;;;11.13;;
45236;SDS011;30973;51.442;3.580;2023-02-21T16:36:29;17.20;;;10.57;;
45236;SDS011;30973;51.442;3.580;2023-02-21T16:38:57;13.52;;;8.20;;
45236;SDS011;30973;51.442;3.580;2023-02-21T16:41:24;22.20;;;10.90;;
45236;SDS011;30973;51.442;3.580;2023-02-21T16:43:51;20.92;;;11.43;;
45236;SDS011;30973;51.442;3.580;2023-02-21T16:46:24;20.33;;;12.48;;
45236;SDS011;30973;51.442;3.580;2023-02-21T16:48:55;17.95;;;10.00;;
45236;SDS011;30973;51.442;3.580;2023-02-21T16:51:22;11.20;;;8.50;;
45236;SDS011;30973;51.442;3.580;2023-02-21T16:53:48;11.23;;;7.43;;
45236;SDS011;30973;51.442;3.580;2023-02-21T16:56:15;8.98;;;6.78;;
45236;SDS011;30973;51.442;3.580;2023-02-21T16:58:46;6.50;;;5.65;;
45236;SDS011;30973;51.442;3.580;2023-02-21T17:01:19;6.38;;;4.88;;
45236;SDS011;30973;51.442;3.580;2023-02-21T17:03:48;6.00;;;5.35;;
45236;SDS011;30973;51.442;3.580;2023-02-21T17:06:16;7.18;;;6.03;;
45236;SDS011;30973;51.442;3.580;2023-02-21T17:08:44;7.93;;;5.63;;
45236;SDS011;30973;51.442;3.580;2023-02-21T17:11:11;8.48;;;5.47;;
45236;SDS011;30973;51.442;3.580;2023-02-21T17:13:37;8.82;;;5.70;;
45236;SDS011;30973;51.442;3.580;2023-02-21T17:16:04;7.00;;;5.63;;
45236;SDS011;30973;51.442;3.580;2023-02-21T17:18:31;7.28;;;5.97;;
45236;SDS011;30973;51.442;3.580;2023-02-21T17:20:58;9.20;;;7.28;;
45236;SDS011;30973;51.442;3.580;2023-02-21T17:23:25;10.25;;;6.70;;
45236;SDS011;30973;51.442;3.580;2023-02-21T17:25:51;8.80;;;6.82;;
45236;SDS011;30973;51.442;3.580;2023-02-21T17:28:18;10.95;;;7.40;;
45236;SDS011;30973;51.442;3.580;2023-02-21T17:30:44;11.55;;;8.65;;
45236;SDS011;30973;51.442;3.580;2023-02-21T17:33:13;9.02;;;7.22;;
45236;SDS011;30973;51.442;3.580;2023-02-21T17:35:40;11.10;;;8.15;;
45236;SDS011;30973;51.442;3.580;2023-02-21T17:38:07;11.23;;;8.45;;
45236;SDS011;30973;51.442;3.580;2023-02-21T17:40:33;9.88;;;7.80;;
45236;SDS011;30973;51.442;3.580;2023-02-21T17:43:00;10.27;;;7.82;;
45236;SDS011;30973;51.442;3.580;2023-02-21T17:45:26;11.50;;;8.45;;
45236;SDS011;30973;51.442;3.580;2023-02-21T17:47:53;11.43;;;8.60;;
45236;SDS011;30973;51.442;3.580;2023-02-21T17:50:20;14.00;;;9.63;;
45236;SDS011;30973;51.442;3.580;2023-02-21T17:52:46;13.02;;;8.75;;
45236;SDS011;30973;51.442;3.580;2023-02-21T17:55:17;13.25;;;9.32;;
45236;SDS011;30973;51.442;3.580;2023-02-21T17:57:44;14.05;;;10.25;;
45236;SDS011;30973;51.442;3.580;2023-02-21T18:00:15;13.65;;;10.40;;
45236;SDS011;30973;51.442;3.580;2023-02-21T18:02:46;13.45;;;9.80;;